sensor_id;sensor_type;location;lat;lon;timestamp;P1;durP1;ratioP1;P2;durP2;ratioP2
2888;SDS011;1453;42.708;23.282;2023-05-29T00:00:57;11.47;;;8.13;;
2888;SDS011;1453;42.708;23.282;2023-05-29T00:03:22;19.83;;;7.67;;
2888;SDS011;1453;42.708;23.282;2023-05-29T00:05:48;14.83;;;7.77;;
2888;SDS011;1453;42.708;23.282;2023-05-29T00:08:14;15.70;;;8.20;;
2888;SDS011;1453;42.708;23.282;2023-05-29T00:10:40;8.60;;;7.17;;
2888;SDS011;1453;42.708;23.282;2023-05-29T00:13:06;9.23;;;7.53;;
2888;SDS011;1453;42.708;23.282;2023-05-29T00:15:32;10.00;;;6.67;;
2888;SDS011;1453;42.708;23.282;2023-05-29T00:17:58;9.07;;;7.13;;
2888;SDS011;1453;42.708;23.282;2023-05-29T00:20:23;11.20;;;8.97;;
2888;SDS011;1453;42.708;23.282;2023-05-29T00:22:49;10.13;;;6.90;;
2888;SDS011;1453;42.708;23.282;2023-05-29T00:25:15;10.17;;;7.87;;
2888;SDS011;1453;42.708;23.282;2023-05-29T00:27:41;8.67;;;6.63;;
2888;SDS011;1453;42.708;23.282;2023-05-29T00:30:07;10.70;;;7.50;;
2888;SDS011;1453;42.708;23.282;2023-05-29T00:32:33;11.23;;;7.33;;
2888;SDS011;1453;42.708;23.282;2023-05-29T00:34:59;9.03;;;6.90;;
2888;SDS011;1453;42.708;23.282;2023-05-29T00:37:25;12.03;;;6.80;;
2888;SDS011;1453;42.708;23.282;2023-05-29T00:39:51;12.03;;;7.30;;
2888;SDS011;1453;42.708;23.282;2023-05-29T00:42:16;8.00;;;6.60;;
2888;SDS011;1453;42.708;23.282;2023-05-29T00:44:42;16.33;;;7.73;;
2888;SDS011;1453;42.708;23.282;2023-05-29T00:47:08;8.27;;;6.83;;
2888;SDS011;1453;42.708;23.282;2023-05-29T00:49:35;11.63;;;7.10;;
2888;SDS011;1453;42.708;23.282;2023-05-29T00:52:02;12.67;;;8.67;;
2888;SDS011;1453;42.708;23.282;2023-05-29T00:54:31;9.23;;;7.13;;
2888;SDS011;1453;42.708;23.282;2023-05-29T00:56:58;12.03;;;7.30;;
2888;SDS011;1453;42.708;23.282;2023-05-29T00:59:27;9.37;;;6.80;;
2888;SDS011;1453;42.708;23.282;2023-05-29T01:01:56;12.10;;;6.70;;
2888;SDS011;1453;42.708;23.282;2023-05-29T01:04:23;10.03;;;7.23;;
2888;SDS011;1453;42.708;23.282;2023-05-29T01:06:53;14.50;;;8.00;;
2888;SDS011;1453;42.708;23.282;2023-05-29T01:09:20;8.53;;;6.97;;
2888;SDS011;1453;42.708;23.282;2023-05-29T01:14:57;9.37;;;7.33;;
2888;SDS011;1453;42.708;23.282;2023-05-29T01:26:02;10.37;;;7.10;;
2888;SDS011;1453;42.708;23.282;2023-05-29T01:28:57;13.33;;;7.40;;
2888;SDS011;1453;42.708;23.282;2023-05-29T01:31:26;12.57;;;7.60;;
2888;SDS011;1453;42.708;23.282;2023-05-29T01:33:56;9.57;;;7.73;;
2888;SDS011;1453;42.708;23.282;2023-05-29T01:36:25;11.20;;;7.67;;
2888;SDS011;1453;42.708;23.282;2023-05-29T01:38:52;12.50;;;7.50;;
2888;SDS011;1453;42.708;23.282;2023-05-29T01:41:21;8.67;;;7.43;;
2888;SDS011;1453;42.708;23.282;2023-05-29T01:43:48;10.40;;;8.13;;
2888;SDS011;1453;42.708;23.282;2023-05-29T01:46:16;11.87;;;7.43;;
2888;SDS011;1453;42.708;23.282;2023-05-29T01:48:44;8.57;;;6.93;;
2888;SDS011;1453;42.708;23.282;2023-05-29T01:51:11;13.60;;;8.47;;
2888;SDS011;1453;42.708;23.282;2023-05-29T01:53:41;12.70;;;7.90;;
2888;SDS011;1453;42.708;23.282;2023-05-29T01:56:09;11.50;;;7.90;;
2888;SDS011;1453;42.708;23.282;2023-05-29T01:58:35;15.53;;;8.77;;
2888;SDS011;1453;42.708;23.282;2023-05-29T02:01:02;11.00;;;8.80;;
2888;SDS011;1453;42.708;23.282;2023-05-29T02:03:31;10.73;;;8.47;;
2888;SDS011;1453;42.708;23.282;2023-05-29T02:05:58;11.27;;;8.70;;
2888;SDS011;1453;42.708;23.282;2023-05-29T02:08:25;9.80;;;7.83;;
2888;SDS011;1453;42.708;23.282;2023-05-29T02:10:51;9.83;;;6.90;;
2888;SDS011;1453;42.708;23.282;2023-05-29T02:13:17;9.43;;;6.93;;
2888;SDS011;1453;42.708;23.282;2023-05-29T02:15:43;10.43;;;7.00;;
2888;SDS011;1453;42.708;23.282;2023-05-29T02:18:10;9.00;;;7.10;;
2888;SDS011;1453;42.708;23.282;2023-05-29T02:20:39;13.50;;;7.03;;
2888;SDS011;1453;42.708;23.282;2023-05-29T02:23:05;10.90;;;8.43;;
2888;SDS011;1453;42.708;23.282;2023-05-29T02:25:34;21.13;;;9.57;;
2888;SDS011;1453;42.708;23.282;2023-05-29T02:28:00;15.50;;;8.67;;
2888;SDS011;1453;42.708;23.282;2023-05-29T02:30:27;12.70;;;7.60;;
2888;SDS011;1453;42.708;23.282;2023-05-29T02:32:53;12.93;;;8.73;;
2888;SDS011;1453;42.708;23.282;2023-05-29T02:35:20;10.00;;;7.70;;
2888;SDS011;1453;42.708;23.282;2023-05-29T02:37:47;13.60;;;8.50;;
2888;SDS011;1453;42.708;23.282;2023-05-29T02:40:14;12.53;;;8.67;;
2888;SDS011;1453;42.708;23.282;2023-05-29T02:42:40;13.47;;;9.40;;
2888;SDS011;1453;42.708;23.282;2023-05-29T02:45:06;13.90;;;10.20;;
2888;SDS011;1453;42.708;23.282;2023-05-29T02:47:34;11.97;;;10.20;;
2888;SDS011;1453;42.708;23.282;2023-05-29T02:50:00;11.20;;;9.03;;
2888;SDS011;1453;42.708;23.282;2023-05-29T02:52:27;12.90;;;8.93;;
2888;SDS011;1453;42.708;23.282;2023-05-29T02:54:53;9.57;;;7.87;;
2888;SDS011;1453;42.708;23.282;2023-05-29T02:57:22;14.30;;;9.17;;
2888;SDS011;1453;42.708;23.282;2023-05-29T02:59:48;14.40;;;9.80;;
2888;SDS011;1453;42.708;23.282;2023-05-29T03:02:14;12.30;;;9.80;;
2888;SDS011;1453;42.708;23.282;2023-05-29T03:04:40;13.50;;;10.23;;
2888;SDS011;1453;42.708;23.282;2023-05-29T03:07:06;17.37;;;12.60;;
2888;SDS011;1453;42.708;23.282;2023-05-29T03:09:34;17.93;;;10.43;;
2888;SDS011;1453;42.708;23.282;2023-05-29T03:12:00;20.00;;;10.70;;
2888;SDS011;1453;42.708;23.282;2023-05-29T03:14:26;12.60;;;9.60;;
2888;SDS011;1453;42.708;23.282;2023-05-29T03:16:53;12.90;;;9.43;;
2888;SDS011;1453;42.708;23.282;2023-05-29T03:19:19;14.10;;;9.60;;
2888;SDS011;1453;42.708;23.282;2023-05-29T03:21:45;14.67;;;9.53;;
2888;SDS011;1453;42.708;23.282;2023-05-29T03:24:11;14.47;;;10.73;;
2888;SDS011;1453;42.708;23.282;2023-05-29T03:26:41;13.43;;;10.40;;
2888;SDS011;1453;42.708;23.282;2023-05-29T03:29:07;21.00;;;12.37;;
2888;SDS011;1453;42.708;23.282;2023-05-29T03:31:33;22.37;;;15.50;;
2888;SDS011;1453;42.708;23.282;2023-05-29T03:33:59;24.10;;;13.27;;
2888;SDS011;1453;42.708;23.282;2023-05-29T03:36:25;15.40;;;11.10;;
2888;SDS011;1453;42.708;23.282;2023-05-29T03:38:51;20.10;;;12.50;;
2888;SDS011;1453;42.708;23.282;2023-05-29T03:41:17;15.03;;;10.60;;
2888;SDS011;1453;42.708;23.282;2023-05-29T03:43:43;15.70;;;11.77;;
2888;SDS011;1453;42.708;23.282;2023-05-29T03:46:09;16.93;;;11.00;;
2888;SDS011;1453;42.708;23.282;2023-05-29T03:48:34;13.60;;;10.60;;
2888;SDS011;1453;42.708;23.282;2023-05-29T03:51:00;17.30;;;10.80;;
2888;SDS011;1453;42.708;23.282;2023-05-29T03:53:26;12.13;;;10.43;;
2888;SDS011;1453;42.708;23.282;2023-05-29T03:55:52;17.23;;;11.67;;
2888;SDS011;1453;42.708;23.282;2023-05-29T03:58:17;23.30;;;15.23;;
2888;SDS011;1453;42.708;23.282;2023-05-29T04:00:43;20.07;;;11.90;;
2888;SDS011;1453;42.708;23.282;2023-05-29T04:03:09;14.20;;;10.23;;
2888;SDS011;1453;42.708;23.282;2023-05-29T04:05:36;20.93;;;13.67;;
2888;SDS011;1453;42.708;23.282;2023-05-29T04:08:02;19.90;;;12.43;;
2888;SDS011;1453;42.708;23.282;2023-05-29T04:10:29;14.23;;;11.00;;
2888;SDS011;1453;42.708;23.282;2023-05-29T04:12:58;16.67;;;11.80;;
2888;SDS011;1453;42.708;23.282;2023-05-29T04:15:26;15.97;;;12.20;;
2888;SDS011;1453;42.708;23.282;2023-05-29T04:17:53;15.40;;;10.90;;
2888;SDS011;1453;42.708;23.282;2023-05-29T04:20:20;14.10;;;10.90;;
2888;SDS011;1453;42.708;23.282;2023-05-29T04:22:46;14.83;;;10.70;;
2888;SDS011;1453;42.708;23.282;2023-05-29T04:25:12;12.60;;;10.80;;
2888;SDS011;1453;42.708;23.282;2023-05-29T04:27:38;15.13;;;10.17;;
2888;SDS011;1453;42.708;23.282;2023-05-29T04:30:04;15.60;;;10.40;;
2888;SDS011;1453;42.708;23.282;2023-05-29T04:32:32;19.40;;;11.03;;
2888;SDS011;1453;42.708;23.282;2023-05-29T04:34:58;15.30;;;10.60;;
2888;SDS011;1453;42.708;23.282;2023-05-29T04:37:28;16.77;;;11.93;;
2888;SDS011;1453;42.708;23.282;2023-05-29T04:39:58;17.40;;;10.23;;
2888;SDS011;1453;42.708;23.282;2023-05-29T04:42:24;17.17;;;10.90;;
2888;SDS011;1453;42.708;23.282;2023-05-29T04:44:51;14.63;;;10.60;;
2888;SDS011;1453;42.708;23.282;2023-05-29T04:47:19;16.10;;;9.53;;
2888;SDS011;1453;42.708;23.282;2023-05-29T04:49:47;13.10;;;10.17;;
2888;SDS011;1453;42.708;23.282;2023-05-29T04:52:14;13.50;;;9.83;;
2888;SDS011;1453;42.708;23.282;2023-05-29T04:54:40;16.73;;;10.30;;
2888;SDS011;1453;42.708;23.282;2023-05-29T04:57:06;13.90;;;9.70;;
2888;SDS011;1453;42.708;23.282;2023-05-29T04:59:33;15.03;;;10.30;;
2888;SDS011;1453;42.708;23.282;2023-05-29T05:02:00;18.63;;;11.03;;
2888;SDS011;1453;42.708;23.282;2023-05-29T05:04:26;13.90;;;10.47;;
2888;SDS011;1453;42.708;23.282;2023-05-29T05:06:52;19.53;;;11.90;;
2888;SDS011;1453;42.708;23.282;2023-05-29T05:09:18;19.93;;;13.07;;
2888;SDS011;1453;42.708;23.282;2023-05-29T05:11:44;16.60;;;12.43;;
2888;SDS011;1453;42.708;23.282;2023-05-29T05:14:10;17.27;;;13.07;;
2888;SDS011;1453;42.708;23.282;2023-05-29T05:16:36;13.00;;;11.30;;
2888;SDS011;1453;42.708;23.282;2023-05-29T05:19:01;15.70;;;12.10;;
2888;SDS011;1453;42.708;23.282;2023-05-29T05:21:27;23.37;;;12.20;;
2888;SDS011;1453;42.708;23.282;2023-05-29T05:23:56;12.33;;;10.90;;
2888;SDS011;1453;42.708;23.282;2023-05-29T05:26:24;31.67;;;13.20;;
2888;SDS011;1453;42.708;23.282;2023-05-29T05:28:53;19.90;;;12.60;;
2888;SDS011;1453;42.708;23.282;2023-05-29T05:31:19;18.47;;;15.03;;
2888;SDS011;1453;42.708;23.282;2023-05-29T05:33:47;26.50;;;11.50;;
2888;SDS011;1453;42.708;23.282;2023-05-29T05:36:13;16.00;;;11.60;;
2888;SDS011;1453;42.708;23.282;2023-05-29T05:38:41;16.83;;;10.40;;
2888;SDS011;1453;42.708;23.282;2023-05-29T05:41:06;15.23;;;9.90;;
2888;SDS011;1453;42.708;23.282;2023-05-29T05:43:32;16.97;;;9.40;;
2888;SDS011;1453;42.708;23.282;2023-05-29T05:45:58;11.67;;;7.17;;
2888;SDS011;1453;42.708;23.282;2023-05-29T05:48:24;14.03;;;10.17;;
2888;SDS011;1453;42.708;23.282;2023-05-29T05:50:50;12.17;;;7.30;;
2888;SDS011;1453;42.708;23.282;2023-05-29T05:53:16;10.20;;;7.47;;
2888;SDS011;1453;42.708;23.282;2023-05-29T05:55:42;11.60;;;7.10;;
2888;SDS011;1453;42.708;23.282;2023-05-29T05:58:08;8.73;;;7.07;;
2888;SDS011;1453;42.708;23.282;2023-05-29T06:00:34;10.67;;;6.83;;
2888;SDS011;1453;42.708;23.282;2023-05-29T06:03:00;9.67;;;7.20;;
2888;SDS011;1453;42.708;23.282;2023-05-29T06:05:28;11.57;;;7.20;;
2888;SDS011;1453;42.708;23.282;2023-05-29T06:07:55;10.57;;;7.50;;
2888;SDS011;1453;42.708;23.282;2023-05-29T06:10:21;13.50;;;7.13;;
2888;SDS011;1453;42.708;23.282;2023-05-29T06:12:47;12.57;;;7.00;;
2888;SDS011;1453;42.708;23.282;2023-05-29T06:15:12;9.20;;;6.60;;
2888;SDS011;1453;42.708;23.282;2023-05-29T06:17:38;11.00;;;6.93;;
2888;SDS011;1453;42.708;23.282;2023-05-29T06:20:05;8.93;;;6.27;;
2888;SDS011;1453;42.708;23.282;2023-05-29T06:22:35;10.30;;;5.90;;
2888;SDS011;1453;42.708;23.282;2023-05-29T06:25:02;7.63;;;6.50;;
2888;SDS011;1453;42.708;23.282;2023-05-29T06:27:28;8.13;;;4.97;;
2888;SDS011;1453;42.708;23.282;2023-05-29T06:29:55;7.90;;;5.80;;
2888;SDS011;1453;42.708;23.282;2023-05-29T06:32:20;7.10;;;5.50;;
2888;SDS011;1453;42.708;23.282;2023-05-29T06:34:47;8.47;;;5.70;;
2888;SDS011;1453;42.708;23.282;2023-05-29T06:37:13;6.70;;;5.83;;
2888;SDS011;1453;42.708;23.282;2023-05-29T06:39:38;16.40;;;5.60;;
2888;SDS011;1453;42.708;23.282;2023-05-29T06:42:07;9.60;;;5.10;;
2888;SDS011;1453;42.708;23.282;2023-05-29T06:44:33;6.73;;;5.20;;
2888;SDS011;1453;42.708;23.282;2023-05-29T06:46:59;6.37;;;4.97;;
2888;SDS011;1453;42.708;23.282;2023-05-29T06:49:25;5.70;;;4.30;;
2888;SDS011;1453;42.708;23.282;2023-05-29T06:51:51;6.53;;;4.60;;
2888;SDS011;1453;42.708;23.282;2023-05-29T06:54:17;5.30;;;4.30;;
2888;SDS011;1453;42.708;23.282;2023-05-29T06:56:42;6.07;;;4.87;;
2888;SDS011;1453;42.708;23.282;2023-05-29T06:59:08;7.03;;;4.33;;
2888;SDS011;1453;42.708;23.282;2023-05-29T07:01:34;6.30;;;5.43;;
2888;SDS011;1453;42.708;23.282;2023-05-29T07:04:00;5.80;;;5.20;;
2888;SDS011;1453;42.708;23.282;2023-05-29T07:06:26;5.27;;;3.60;;
2888;SDS011;1453;42.708;23.282;2023-05-29T07:08:52;8.07;;;4.33;;
2888;SDS011;1453;42.708;23.282;2023-05-29T07:11:18;6.37;;;4.30;;
2888;SDS011;1453;42.708;23.282;2023-05-29T07:13:43;5.90;;;3.90;;
2888;SDS011;1453;42.708;23.282;2023-05-29T07:16:09;4.40;;;3.50;;
2888;SDS011;1453;42.708;23.282;2023-05-29T07:18:35;9.23;;;4.40;;
2888;SDS011;1453;42.708;23.282;2023-05-29T07:21:01;7.73;;;3.60;;
2888;SDS011;1453;42.708;23.282;2023-05-29T07:23:27;3.90;;;3.27;;
2888;SDS011;1453;42.708;23.282;2023-05-29T07:25:52;5.27;;;3.50;;
2888;SDS011;1453;42.708;23.282;2023-05-29T07:28:18;4.23;;;3.40;;
2888;SDS011;1453;42.708;23.282;2023-05-29T07:30:44;5.40;;;4.17;;
2888;SDS011;1453;42.708;23.282;2023-05-29T07:33:10;7.13;;;4.90;;
2888;SDS011;1453;42.708;23.282;2023-05-29T07:35:36;5.97;;;3.60;;
2888;SDS011;1453;42.708;23.282;2023-05-29T07:38:01;5.17;;;3.50;;
2888;SDS011;1453;42.708;23.282;2023-05-29T07:40:27;3.77;;;3.37;;
2888;SDS011;1453;42.708;23.282;2023-05-29T07:42:53;5.30;;;3.33;;
2888;SDS011;1453;42.708;23.282;2023-05-29T07:45:19;11.63;;;3.50;;
2888;SDS011;1453;42.708;23.282;2023-05-29T07:47:45;3.90;;;3.50;;
2888;SDS011;1453;42.708;23.282;2023-05-29T07:50:11;16.70;;;11.73;;
2888;SDS011;1453;42.708;23.282;2023-05-29T07:52:38;5.50;;;3.83;;
2888;SDS011;1453;42.708;23.282;2023-05-29T07:55:04;5.50;;;3.40;;
2888;SDS011;1453;42.708;23.282;2023-05-29T07:57:30;6.07;;;3.87;;
2888;SDS011;1453;42.708;23.282;2023-05-29T07:59:56;4.53;;;3.47;;
2888;SDS011;1453;42.708;23.282;2023-05-29T08:02:22;5.00;;;3.13;;
2888;SDS011;1453;42.708;23.282;2023-05-29T08:04:48;5.77;;;3.77;;
2888;SDS011;1453;42.708;23.282;2023-05-29T08:07:14;5.50;;;3.70;;
2888;SDS011;1453;42.708;23.282;2023-05-29T08:09:40;5.23;;;3.07;;
2888;SDS011;1453;42.708;23.282;2023-05-29T08:12:05;7.40;;;3.20;;
2888;SDS011;1453;42.708;23.282;2023-05-29T08:14:31;7.70;;;3.30;;
2888;SDS011;1453;42.708;23.282;2023-05-29T08:16:57;4.87;;;3.50;;
2888;SDS011;1453;42.708;23.282;2023-05-29T08:19:24;4.70;;;3.20;;
2888;SDS011;1453;42.708;23.282;2023-05-29T08:21:49;4.70;;;3.47;;
2888;SDS011;1453;42.708;23.282;2023-05-29T08:24:15;3.80;;;3.10;;
2888;SDS011;1453;42.708;23.282;2023-05-29T08:26:41;4.20;;;3.00;;
2888;SDS011;1453;42.708;23.282;2023-05-29T08:29:08;4.60;;;3.47;;
2888;SDS011;1453;42.708;23.282;2023-05-29T08:31:34;5.23;;;3.50;;
2888;SDS011;1453;42.708;23.282;2023-05-29T08:34:00;5.00;;;3.60;;
2888;SDS011;1453;42.708;23.282;2023-05-29T08:36:27;4.70;;;3.50;;
2888;SDS011;1453;42.708;23.282;2023-05-29T08:38:53;4.20;;;3.63;;
2888;SDS011;1453;42.708;23.282;2023-05-29T08:41:25;5.07;;;3.80;;
2888;SDS011;1453;42.708;23.282;2023-05-29T08:44:07;4.07;;;3.60;;
2888;SDS011;1453;42.708;23.282;2023-05-29T08:46:34;4.43;;;3.80;;
2888;SDS011;1453;42.708;23.282;2023-05-29T08:49:02;5.20;;;4.70;;
2888;SDS011;1453;42.708;23.282;2023-05-29T08:51:31;4.90;;;4.33;;
2888;SDS011;1453;42.708;23.282;2023-05-29T08:54:02;6.97;;;4.63;;
2888;SDS011;1453;42.708;23.282;2023-05-29T08:56:28;4.70;;;3.73;;
2888;SDS011;1453;42.708;23.282;2023-05-29T08:58:55;5.00;;;3.70;;
2888;SDS011;1453;42.708;23.282;2023-05-29T09:01:22;8.37;;;4.47;;
2888;SDS011;1453;42.708;23.282;2023-05-29T09:03:50;4.20;;;3.80;;
2888;SDS011;1453;42.708;23.282;2023-05-29T09:06:16;4.93;;;3.93;;
2888;SDS011;1453;42.708;23.282;2023-05-29T09:08:43;5.10;;;4.10;;
2888;SDS011;1453;42.708;23.282;2023-05-29T09:11:09;5.33;;;4.00;;
2888;SDS011;1453;42.708;23.282;2023-05-29T09:13:35;6.10;;;4.40;;
2888;SDS011;1453;42.708;23.282;2023-05-29T09:16:01;4.17;;;3.77;;
2888;SDS011;1453;42.708;23.282;2023-05-29T09:18:30;5.07;;;4.00;;
2888;SDS011;1453;42.708;23.282;2023-05-29T09:20:56;4.30;;;3.50;;
2888;SDS011;1453;42.708;23.282;2023-05-29T09:23:24;6.77;;;4.00;;
2888;SDS011;1453;42.708;23.282;2023-05-29T09:25:52;9.93;;;4.17;;
2888;SDS011;1453;42.708;23.282;2023-05-29T09:28:20;5.00;;;3.80;;
2888;SDS011;1453;42.708;23.282;2023-05-29T09:30:48;5.23;;;4.70;;
2888;SDS011;1453;42.708;23.282;2023-05-29T09:33:14;6.40;;;4.40;;
2888;SDS011;1453;42.708;23.282;2023-05-29T09:38:12;5.23;;;4.57;;
2888;SDS011;1453;42.708;23.282;2023-05-29T09:40:43;7.30;;;4.43;;
2888;SDS011;1453;42.708;23.282;2023-05-29T09:43:16;6.03;;;4.23;;
2888;SDS011;1453;42.708;23.282;2023-05-29T09:45:45;5.27;;;4.47;;
2888;SDS011;1453;42.708;23.282;2023-05-29T09:48:14;4.80;;;4.03;;
2888;SDS011;1453;42.708;23.282;2023-05-29T09:50:47;7.90;;;4.47;;
2888;SDS011;1453;42.708;23.282;2023-05-29T09:53:21;5.57;;;4.30;;
2888;SDS011;1453;42.708;23.282;2023-05-29T09:55:50;8.40;;;4.37;;
2888;SDS011;1453;42.708;23.282;2023-05-29T09:58:18;7.43;;;5.10;;
2888;SDS011;1453;42.708;23.282;2023-05-29T10:00:45;6.07;;;4.63;;
2888;SDS011;1453;42.708;23.282;2023-05-29T10:03:13;6.03;;;4.80;;
2888;SDS011;1453;42.708;23.282;2023-05-29T10:05:40;5.97;;;4.90;;
2888;SDS011;1453;42.708;23.282;2023-05-29T10:08:13;5.10;;;4.60;;
2888;SDS011;1453;42.708;23.282;2023-05-29T10:10:43;5.33;;;4.60;;
2888;SDS011;1453;42.708;23.282;2023-05-29T10:13:12;7.77;;;4.40;;
2888;SDS011;1453;42.708;23.282;2023-05-29T10:15:45;6.17;;;5.57;;
2888;SDS011;1453;42.708;23.282;2023-05-29T10:18:18;6.17;;;5.03;;
2888;SDS011;1453;42.708;23.282;2023-05-29T10:20:53;5.30;;;4.80;;
2888;SDS011;1453;42.708;23.282;2023-05-29T10:23:24;5.70;;;5.20;;
2888;SDS011;1453;42.708;23.282;2023-05-29T10:25:51;5.80;;;4.60;;
2888;SDS011;1453;42.708;23.282;2023-05-29T10:28:19;6.83;;;5.30;;
2888;SDS011;1453;42.708;23.282;2023-05-29T10:30:53;5.23;;;4.70;;
2888;SDS011;1453;42.708;23.282;2023-05-29T10:36:21;4.73;;;4.20;;
2888;SDS011;1453;42.708;23.282;2023-05-29T10:38:51;4.90;;;4.37;;
2888;SDS011;1453;42.708;23.282;2023-05-29T10:43:55;7.53;;;5.63;;
2888;SDS011;1453;42.708;23.282;2023-05-29T10:49:21;7.40;;;6.10;;
2888;SDS011;1453;42.708;23.282;2023-05-29T10:51:47;7.10;;;5.70;;
2888;SDS011;1453;42.708;23.282;2023-05-29T10:54:14;5.03;;;3.97;;
2888;SDS011;1453;42.708;23.282;2023-05-29T10:56:44;5.53;;;4.97;;
2888;SDS011;1453;42.708;23.282;2023-05-29T10:59:21;6.40;;;4.70;;
2888;SDS011;1453;42.708;23.282;2023-05-29T11:01:50;8.73;;;5.00;;
2888;SDS011;1453;42.708;23.282;2023-05-29T11:06:47;6.00;;;5.40;;
2888;SDS011;1453;42.708;23.282;2023-05-29T11:17:44;6.40;;;5.10;;
2888;SDS011;1453;42.708;23.282;2023-05-29T11:23:17;7.30;;;5.67;;
2888;SDS011;1453;42.708;23.282;2023-05-29T11:25:44;4.63;;;4.13;;
2888;SDS011;1453;42.708;23.282;2023-05-29T11:28:13;5.80;;;4.43;;
2888;SDS011;1453;42.708;23.282;2023-05-29T11:30:46;8.80;;;4.77;;
2888;SDS011;1453;42.708;23.282;2023-05-29T11:33:15;5.53;;;4.70;;
2888;SDS011;1453;42.708;23.282;2023-05-29T11:35:55;5.23;;;4.33;;
2888;SDS011;1453;42.708;23.282;2023-05-29T11:38:24;8.23;;;5.93;;
2888;SDS011;1453;42.708;23.282;2023-05-29T11:40:52;5.27;;;4.60;;
2888;SDS011;1453;42.708;23.282;2023-05-29T11:43:19;6.33;;;5.20;;
2888;SDS011;1453;42.708;23.282;2023-05-29T11:45:46;5.60;;;4.43;;
2888;SDS011;1453;42.708;23.282;2023-05-29T11:48:12;5.80;;;4.90;;
2888;SDS011;1453;42.708;23.282;2023-05-29T11:50:38;5.37;;;4.70;;
2888;SDS011;1453;42.708;23.282;2023-05-29T11:53:05;6.73;;;4.40;;
2888;SDS011;1453;42.708;23.282;2023-05-29T11:55:35;6.97;;;4.80;;
2888;SDS011;1453;42.708;23.282;2023-05-29T11:58:02;9.00;;;4.60;;
2888;SDS011;1453;42.708;23.282;2023-05-29T12:00:32;8.20;;;4.57;;
2888;SDS011;1453;42.708;23.282;2023-05-29T12:03:04;9.00;;;5.07;;
2888;SDS011;1453;42.708;23.282;2023-05-29T12:05:32;5.93;;;4.17;;
2888;SDS011;1453;42.708;23.282;2023-05-29T12:08:09;6.67;;;4.60;;
2888;SDS011;1453;42.708;23.282;2023-05-29T12:10:35;5.07;;;4.10;;
2888;SDS011;1453;42.708;23.282;2023-05-29T12:13:04;7.00;;;3.90;;
2888;SDS011;1453;42.708;23.282;2023-05-29T12:15:29;5.83;;;4.37;;
2888;SDS011;1453;42.708;23.282;2023-05-29T12:17:55;7.80;;;4.90;;
2888;SDS011;1453;42.708;23.282;2023-05-29T12:20:23;8.07;;;5.10;;
2888;SDS011;1453;42.708;23.282;2023-05-29T12:22:52;9.60;;;4.87;;
2888;SDS011;1453;42.708;23.282;2023-05-29T12:25:21;8.23;;;4.97;;
2888;SDS011;1453;42.708;23.282;2023-05-29T12:27:47;2.30;;;1.27;;
2888;SDS011;1453;42.708;23.282;2023-05-29T12:30:23;1.47;;;0.80;;
2888;SDS011;1453;42.708;23.282;2023-05-29T12:32:51;1.47;;;0.80;;
2888;SDS011;1453;42.708;23.282;2023-05-29T12:35:18;3.67;;;1.73;;
2888;SDS011;1453;42.708;23.282;2023-05-29T12:37:52;2.67;;;1.53;;
2888;SDS011;1453;42.708;23.282;2023-05-29T12:40:33;1.43;;;0.80;;
2888;SDS011;1453;42.708;23.282;2023-05-29T12:43:02;1.40;;;0.80;;
2888;SDS011;1453;42.708;23.282;2023-05-29T12:45:31;1.43;;;0.80;;
2888;SDS011;1453;42.708;23.282;2023-05-29T12:48:00;1.43;;;0.80;;
2888;SDS011;1453;42.708;23.282;2023-05-29T12:50:32;1.43;;;0.80;;
2888;SDS011;1453;42.708;23.282;2023-05-29T12:55:42;1.50;;;0.90;;
2888;SDS011;1453;42.708;23.282;2023-05-29T12:58:09;1.50;;;0.80;;
2888;SDS011;1453;42.708;23.282;2023-05-29T13:00:38;1.50;;;0.80;;
2888;SDS011;1453;42.708;23.282;2023-05-29T13:03:08;2.07;;;1.37;;
2888;SDS011;1453;42.708;23.282;2023-05-29T13:05:38;1.50;;;0.80;;
2888;SDS011;1453;42.708;23.282;2023-05-29T13:08:04;1.50;;;0.80;;
2888;SDS011;1453;42.708;23.282;2023-05-29T13:10:32;1.60;;;1.00;;
2888;SDS011;1453;42.708;23.282;2023-05-29T13:12:59;1.53;;;0.80;;
2888;SDS011;1453;42.708;23.282;2023-05-29T13:15:25;2.80;;;1.13;;
2888;SDS011;1453;42.708;23.282;2023-05-29T13:17:51;1.57;;;0.80;;
2888;SDS011;1453;42.708;23.282;2023-05-29T13:20:18;2.27;;;1.83;;
2888;SDS011;1453;42.708;23.282;2023-05-29T13:22:45;1.50;;;0.80;;
2888;SDS011;1453;42.708;23.282;2023-05-29T13:25:13;2.17;;;1.17;;
2888;SDS011;1453;42.708;23.282;2023-05-29T13:27:41;1.60;;;1.03;;
2888;SDS011;1453;42.708;23.282;2023-05-29T13:30:09;1.60;;;0.90;;
2888;SDS011;1453;42.708;23.282;2023-05-29T13:32:37;4.50;;;1.47;;
2888;SDS011;1453;42.708;23.282;2023-05-29T13:35:03;1.70;;;1.00;;
2888;SDS011;1453;42.708;23.282;2023-05-29T13:37:30;1.80;;;1.10;;
2888;SDS011;1453;42.708;23.282;2023-05-29T13:39:56;1.70;;;0.97;;
2888;SDS011;1453;42.708;23.282;2023-05-29T13:42:23;1.60;;;0.80;;
2888;SDS011;1453;42.708;23.282;2023-05-29T13:44:49;1.60;;;0.80;;
2888;SDS011;1453;42.708;23.282;2023-05-29T13:47:15;1.60;;;0.80;;
2888;SDS011;1453;42.708;23.282;2023-05-29T13:49:41;1.57;;;0.80;;
2888;SDS011;1453;42.708;23.282;2023-05-29T13:52:11;1.53;;;0.83;;
2888;SDS011;1453;42.708;23.282;2023-05-29T13:54:37;2.20;;;1.53;;
2888;SDS011;1453;42.708;23.282;2023-05-29T13:57:04;1.60;;;0.80;;
2888;SDS011;1453;42.708;23.282;2023-05-29T13:59:31;1.60;;;0.80;;
2888;SDS011;1453;42.708;23.282;2023-05-29T14:01:59;1.60;;;0.80;;
2888;SDS011;1453;42.708;23.282;2023-05-29T14:04:25;1.57;;;0.80;;
2888;SDS011;1453;42.708;23.282;2023-05-29T14:06:52;1.50;;;0.80;;
2888;SDS011;1453;42.708;23.282;2023-05-29T14:09:18;1.53;;;0.80;;
2888;SDS011;1453;42.708;23.282;2023-05-29T14:11:51;1.57;;;0.80;;
2888;SDS011;1453;42.708;23.282;2023-05-29T14:14:22;1.53;;;0.80;;
2888;SDS011;1453;42.708;23.282;2023-05-29T14:16:48;1.50;;;0.80;;
2888;SDS011;1453;42.708;23.282;2023-05-29T14:19:15;1.57;;;0.80;;
2888;SDS011;1453;42.708;23.282;2023-05-29T14:21:41;1.57;;;0.80;;
2888;SDS011;1453;42.708;23.282;2023-05-29T14:24:07;1.50;;;0.80;;
2888;SDS011;1453;42.708;23.282;2023-05-29T14:26:33;1.50;;;0.80;;
2888;SDS011;1453;42.708;23.282;2023-05-29T14:28:59;1.50;;;0.80;;
2888;SDS011;1453;42.708;23.282;2023-05-29T14:31:27;1.57;;;0.87;;
2888;SDS011;1453;42.708;23.282;2023-05-29T14:33:53;3.83;;;1.93;;
2888;SDS011;1453;42.708;23.282;2023-05-29T14:36:18;3.63;;;2.10;;
2888;SDS011;1453;42.708;23.282;2023-05-29T14:38:44;6.23;;;2.53;;
2888;SDS011;1453;42.708;23.282;2023-05-29T14:41:11;2.63;;;1.80;;
2888;SDS011;1453;42.708;23.282;2023-05-29T14:43:37;4.33;;;2.00;;
2888;SDS011;1453;42.708;23.282;2023-05-29T14:46:06;4.70;;;2.90;;
2888;SDS011;1453;42.708;23.282;2023-05-29T14:48:32;5.70;;;2.93;;
2888;SDS011;1453;42.708;23.282;2023-05-29T14:50:57;3.37;;;2.63;;
2888;SDS011;1453;42.708;23.282;2023-05-29T14:53:23;3.23;;;2.50;;
2888;SDS011;1453;42.708;23.282;2023-05-29T14:55:49;3.63;;;2.33;;
2888;SDS011;1453;42.708;23.282;2023-05-29T14:58:15;4.80;;;3.00;;
2888;SDS011;1453;42.708;23.282;2023-05-29T15:00:41;3.93;;;3.27;;
2888;SDS011;1453;42.708;23.282;2023-05-29T15:03:06;6.27;;;3.37;;
2888;SDS011;1453;42.708;23.282;2023-05-29T15:05:32;3.83;;;3.43;;
2888;SDS011;1453;42.708;23.282;2023-05-29T15:07:58;4.73;;;3.10;;
2888;SDS011;1453;42.708;23.282;2023-05-29T15:10:25;4.60;;;2.87;;
2888;SDS011;1453;42.708;23.282;2023-05-29T15:12:52;6.93;;;3.40;;
2888;SDS011;1453;42.708;23.282;2023-05-29T15:15:28;5.73;;;3.50;;
2888;SDS011;1453;42.708;23.282;2023-05-29T15:17:54;4.43;;;3.40;;
2888;SDS011;1453;42.708;23.282;2023-05-29T15:20:23;6.00;;;4.47;;
2888;SDS011;1453;42.708;23.282;2023-05-29T15:22:51;5.07;;;3.00;;
2888;SDS011;1453;42.708;23.282;2023-05-29T15:25:18;6.03;;;5.10;;
2888;SDS011;1453;42.708;23.282;2023-05-29T15:27:46;4.33;;;3.50;;
2888;SDS011;1453;42.708;23.282;2023-05-29T15:30:13;6.53;;;4.83;;
2888;SDS011;1453;42.708;23.282;2023-05-29T15:32:41;4.70;;;3.40;;